sensor_id;sensor_type;location;lat;lon;timestamp;pressure;altitude;pressure_sealevel;temperature;humidity
46412;BME280;32113;42.012;24.870;2023-12-20T00:01:39;99396.41;;;8.03;57.26
46412;BME280;32113;42.012;24.870;2023-12-20T00:04:05;99394.72;;;8.04;57.54
46412;BME280;32113;42.012;24.870;2023-12-20T00:06:31;99404.91;;;8.00;57.74
46412;BME280;32113;42.012;24.870;2023-12-20T00:08:56;99398.06;;;7.90;57.39
46412;BME280;32113;42.012;24.870;2023-12-20T00:11:23;99390.41;;;7.92;58.18
46412;BME280;32113;42.012;24.870;2023-12-20T00:13:48;99390.38;;;7.85;57.99
46412;BME280;32113;42.012;24.870;2023-12-20T00:16:14;99391.19;;;7.81;58.69
46412;BME280;32113;42.012;24.870;2023-12-20T00:18:39;99383.47;;;7.72;57.96
46412;BME280;32113;42.012;24.870;2023-12-20T00:21:05;99392.75;;;7.57;58.96
46412;BME280;32113;42.012;24.870;2023-12-20T00:23:30;99390.13;;;7.51;59.60
46412;BME280;32113;42.012;24.870;2023-12-20T00:25:55;99388.47;;;7.59;59.67
46412;BME280;32113;42.012;24.870;2023-12-20T00:28:21;99387.53;;;7.46;59.99
46412;BME280;32113;42.012;24.870;2023-12-20T00:30:47;99389.22;;;7.46;59.87
46412;BME280;32113;42.012;24.870;2023-12-20T00:33:13;99384.94;;;7.43;59.87
46412;BME280;32113;42.012;24.870;2023-12-20T00:35:38;99382.41;;;7.40;59.66
46412;BME280;32113;42.012;24.870;2023-12-20T00:38:03;99382.44;;;7.46;60.00
46412;BME280;32113;42.012;24.870;2023-12-20T00:40:30;99385.03;;;7.53;59.79
46412;BME280;32113;42.012;24.870;2023-12-20T00:42:55;99377.38;;;7.54;59.95
46412;BME280;32113;42.012;24.870;2023-12-20T00:45:21;99368.03;;;7.53;59.84
46412;BME280;32113;42.012;24.870;2023-12-20T00:47:46;99372.19;;;7.45;60.51
46412;BME280;32113;42.012;24.870;2023-12-20T00:50:12;99371.34;;;7.43;60.49
46412;BME280;32113;42.012;24.870;2023-12-20T00:52:37;99363.63;;;7.33;60.38
46412;BME280;32113;42.012;24.870;2023-12-20T00:55:03;99361.91;;;7.34;60.59
46412;BME280;32113;42.012;24.870;2023-12-20T00:57:29;99357.72;;;7.42;59.01
46412;BME280;32113;42.012;24.870;2023-12-20T00:59:54;99350.97;;;7.49;57.50
46412;BME280;32113;42.012;24.870;2023-12-20T01:02:20;99345.00;;;7.50;58.70
46412;BME280;32113;42.012;24.870;2023-12-20T01:04:45;99341.44;;;7.28;59.76
46412;BME280;32113;42.012;24.870;2023-12-20T01:07:11;99345.63;;;7.18;60.02
46412;BME280;32113;42.012;24.870;2023-12-20T01:09:37;99339.66;;;7.16;60.79
46412;BME280;32113;42.012;24.870;2023-12-20T01:12:03;99333.69;;;7.15;60.45
46412;BME280;32113;42.012;24.870;2023-12-20T01:14:28;99329.47;;;7.20;60.46
46412;BME280;32113;42.012;24.870;2023-12-20T01:16:53;99321.03;;;7.28;59.92
46412;BME280;32113;42.012;24.870;2023-12-20T01:19:19;99320.19;;;7.30;57.38
46412;BME280;32113;42.012;24.870;2023-12-20T01:21:44;99325.97;;;7.07;60.67
46412;BME280;32113;42.012;24.870;2023-12-20T01:24:10;99323.41;;;7.07;60.13
46412;BME280;32113;42.012;24.870;2023-12-20T01:26:35;99320.94;;;7.17;59.70
46412;BME280;32113;42.012;24.870;2023-12-20T01:29:00;99321.00;;;7.21;58.02
46412;BME280;32113;42.012;24.870;2023-12-20T01:31:26;99318.31;;;7.04;57.81
46412;BME280;32113;42.012;24.870;2023-12-20T01:33:52;99310.72;;;7.14;57.88
46412;BME280;32113;42.012;24.870;2023-12-20T01:36:18;99310.81;;;7.28;57.84
46412;BME280;32113;42.012;24.870;2023-12-20T01:38:43;99295.56;;;7.35;58.31
46412;BME280;32113;42.012;24.870;2023-12-20T01:41:08;99299.03;;;7.50;57.77
46412;BME280;32113;42.012;24.870;2023-12-20T01:43:34;99302.44;;;7.49;58.23
46412;BME280;32113;42.012;24.870;2023-12-20T01:46:00;99286.28;;;7.50;58.79
46412;BME280;32113;42.012;24.870;2023-12-20T01:48:26;99287.97;;;7.51;58.63
46412;BME280;32113;42.012;24.870;2023-12-20T01:50:53;99283.75;;;7.53;58.66
46412;BME280;32113;42.012;24.870;2023-12-20T01:53:20;99277.78;;;7.53;58.76
46412;BME280;32113;42.012;24.870;2023-12-20T01:55:47;99282.06;;;7.54;58.88
46412;BME280;32113;42.012;24.870;2023-12-20T01:58:15;99276.97;;;7.54;57.95
46412;BME280;32113;42.012;24.870;2023-12-20T02:00:40;99272.53;;;7.26;56.20
46412;BME280;32113;42.012;24.870;2023-12-20T02:03:06;99270.75;;;7.14;56.39
46412;BME280;32113;42.012;24.870;2023-12-20T02:05:33;99266.50;;;7.18;57.16
46412;BME280;32113;42.012;24.870;2023-12-20T02:07:59;99268.97;;;7.05;59.18
46412;BME280;32113;42.012;24.870;2023-12-20T02:10:25;99267.25;;;7.03;57.07
46412;BME280;32113;42.012;24.870;2023-12-20T02:12:50;99257.91;;;7.05;57.68
46412;BME280;32113;42.012;24.870;2023-12-20T02:15:16;99256.19;;;7.02;56.83
46412;BME280;32113;42.012;24.870;2023-12-20T02:17:41;99256.28;;;7.15;56.46
46412;BME280;32113;42.012;24.870;2023-12-20T02:20:08;99242.75;;;7.27;56.67
46412;BME280;32113;42.012;24.870;2023-12-20T02:22:33;99243.47;;;7.05;56.00
46412;BME280;32113;42.012;24.870;2023-12-20T02:24:59;99235.00;;;7.14;56.46
46412;BME280;32113;42.012;24.870;2023-12-20T02:27:24;99232.41;;;7.05;56.01
46412;BME280;32113;42.012;24.870;2023-12-20T02:29:50;99235.81;;;7.05;55.67
46412;BME280;32113;42.012;24.870;2023-12-20T02:32:20;99235.91;;;7.19;55.59
46412;BME280;32113;42.012;24.870;2023-12-20T02:34:47;99242.75;;;7.25;55.16
46412;BME280;32113;42.012;24.870;2023-12-20T02:37:13;99237.66;;;7.31;55.49
46412;BME280;32113;42.012;24.870;2023-12-20T02:39:38;99236.88;;;7.39;54.64
46412;BME280;32113;42.012;24.870;2023-12-20T02:42:04;99236.00;;;7.33;54.49
46412;BME280;32113;42.012;24.870;2023-12-20T02:44:29;99225.72;;;7.22;54.51
46412;BME280;32113;42.012;24.870;2023-12-20T02:46:54;99223.00;;;7.01;55.05
46412;BME280;32113;42.012;24.870;2023-12-20T02:49:20;99225.50;;;6.93;55.75
46412;BME280;32113;42.012;24.870;2023-12-20T02:51:45;99228.13;;;7.01;56.88
46412;BME280;32113;42.012;24.870;2023-12-20T02:54:11;99229.81;;;7.00;58.54
46412;BME280;32113;42.012;24.870;2023-12-20T02:56:37;99216.94;;;6.84;57.49
46412;BME280;32113;42.012;24.870;2023-12-20T02:59:02;99212.78;;;6.96;57.62
46412;BME280;32113;42.012;24.870;2023-12-20T03:01:30;99206.94;;;7.13;55.98
46412;BME280;32113;42.012;24.870;2023-12-20T03:03:56;99201.88;;;7.23;55.24
46412;BME280;32113;42.012;24.870;2023-12-20T03:06:21;99204.34;;;7.11;56.23
46412;BME280;32113;42.012;24.870;2023-12-20T03:08:47;99209.34;;;6.92;57.59
46412;BME280;32113;42.012;24.870;2023-12-20T03:11:12;99205.91;;;6.86;57.66
46412;BME280;32113;42.012;24.870;2023-12-20T03:13:37;99210.94;;;6.78;56.23
46412;BME280;32113;42.012;24.870;2023-12-20T03:16:10;99210.19;;;6.88;56.40
46412;BME280;32113;42.012;24.870;2023-12-20T03:18:35;99206.78;;;6.92;56.81
46412;BME280;32113;42.012;24.870;2023-12-20T03:21:01;99208.44;;;6.87;56.41
46412;BME280;32113;42.012;24.870;2023-12-20T03:23:26;99202.38;;;6.71;56.14
46412;BME280;32113;42.012;24.870;2023-12-20T03:25:52;99196.47;;;6.75;56.49
46412;BME280;32113;42.012;24.870;2023-12-20T03:28:18;99200.75;;;6.79;57.91
46412;BME280;32113;42.012;24.870;2023-12-20T03:30:44;99194.81;;;6.80;56.74
46412;BME280;32113;42.012;24.870;2023-12-20T03:33:09;99188.81;;;6.72;56.38
46412;BME280;32113;42.012;24.870;2023-12-20T03:35:35;99181.16;;;6.72;56.05
46412;BME280;32113;42.012;24.870;2023-12-20T03:38:00;99183.72;;;6.75;55.60
46412;BME280;32113;42.012;24.870;2023-12-20T03:40:26;99185.47;;;6.81;55.79
46412;BME280;32113;42.012;24.870;2023-12-20T03:42:51;99178.66;;;6.80;55.60
46412;BME280;32113;42.012;24.870;2023-12-20T03:45:16;99181.22;;;6.80;55.36
46412;BME280;32113;42.012;24.870;2023-12-20T03:47:42;99181.19;;;6.74;55.60
46412;BME280;32113;42.012;24.870;2023-12-20T03:50:07;99181.97;;;6.68;55.41
46412;BME280;32113;42.012;24.870;2023-12-20T03:52:33;99187.84;;;6.57;56.03
46412;BME280;32113;42.012;24.870;2023-12-20T03:54:58;99181.84;;;6.54;56.40
46412;BME280;32113;42.012;24.870;2023-12-20T03:57:23;99182.69;;;6.51;55.89
46412;BME280;32113;42.012;24.870;2023-12-20T03:59:49;99186.03;;;6.44;56.97
46412;BME280;32113;42.012;24.870;2023-12-20T04:02:14;99180.09;;;6.45;56.44
46412;BME280;32113;42.012;24.870;2023-12-20T04:04:40;99175.06;;;6.54;56.19
46412;BME280;32113;42.012;24.870;2023-12-20T04:07:05;99178.41;;;6.47;55.53
46412;BME280;32113;42.012;24.870;2023-12-20T04:09:30;99182.59;;;6.42;56.03
46412;BME280;32113;42.012;24.870;2023-12-20T04:11:56;99185.09;;;6.36;56.28
46412;BME280;32113;42.012;24.870;2023-12-20T04:14:21;99179.19;;;6.38;57.15
46412;BME280;32113;42.012;24.870;2023-12-20T04:16:46;99175.84;;;6.44;57.05
46412;BME280;32113;42.012;24.870;2023-12-20T04:19:12;99168.22;;;6.46;55.69
46412;BME280;32113;42.012;24.870;2023-12-20T04:21:37;99182.50;;;6.28;56.38
46412;BME280;32113;42.012;24.870;2023-12-20T04:24:03;99174.03;;;6.30;56.67
46412;BME280;32113;42.012;24.870;2023-12-20T04:26:28;99180.63;;;6.08;56.71
46412;BME280;32113;42.012;24.870;2023-12-20T04:28:54;99168.53;;;5.93;57.38
46412;BME280;32113;42.012;24.870;2023-12-20T04:31:20;99166.84;;;5.92;58.22
46412;BME280;32113;42.012;24.870;2023-12-20T04:33:45;99174.50;;;5.94;57.98
46412;BME280;32113;42.012;24.870;2023-12-20T04:36:10;99179.59;;;5.97;57.70
46412;BME280;32113;42.012;24.870;2023-12-20T04:38:36;99176.41;;;6.12;57.60
46412;BME280;32113;42.012;24.870;2023-12-20T04:41:01;99159.34;;;6.03;57.02
46412;BME280;32113;42.012;24.870;2023-12-20T04:43:27;99163.63;;;6.09;57.77
46412;BME280;32113;42.012;24.870;2023-12-20T04:45:53;99157.88;;;6.30;56.80
46412;BME280;32113;42.012;24.870;2023-12-20T04:48:18;99152.84;;;6.38;56.46
46412;BME280;32113;42.012;24.870;2023-12-20T04:50:44;99156.19;;;6.30;56.67
46412;BME280;32113;42.012;24.870;2023-12-20T04:53:09;99155.38;;;6.38;56.88
46412;BME280;32113;42.012;24.870;2023-12-20T04:55:35;99146.09;;;6.44;56.13
46412;BME280;32113;42.012;24.870;2023-12-20T04:58:00;99143.59;;;6.52;56.37
46412;BME280;32113;42.012;24.870;2023-12-20T05:00:26;99138.50;;;6.52;55.98
46412;BME280;32113;42.012;24.870;2023-12-20T05:02:51;99141.88;;;6.50;55.94
46412;BME280;32113;42.012;24.870;2023-12-20T05:05:17;99136.78;;;6.48;56.87
46412;BME280;32113;42.012;24.870;2023-12-20T05:07:43;99130.94;;;6.65;57.03
46412;BME280;32113;42.012;24.870;2023-12-20T05:10:09;99131.00;;;6.74;56.33
46412;BME280;32113;42.012;24.870;2023-12-20T05:12:35;99131.06;;;6.83;56.93
46412;BME280;32113;42.012;24.870;2023-12-20T05:15:00;99138.75;;;6.90;58.22
46412;BME280;32113;42.012;24.870;2023-12-20T05:17:26;99140.44;;;6.88;58.60
46412;BME280;32113;42.012;24.870;2023-12-20T05:19:51;99135.34;;;6.86;58.50
46412;BME280;32113;42.012;24.870;2023-12-20T05:22:17;99137.84;;;6.78;59.25
46412;BME280;32113;42.012;24.870;2023-12-20T05:24:43;99135.19;;;6.63;59.52
46412;BME280;32113;42.012;24.870;2023-12-20T05:27:09;99126.66;;;6.57;59.24
46412;BME280;32113;42.012;24.870;2023-12-20T05:29:34;99125.78;;;6.55;60.00
46412;BME280;32113;42.012;24.870;2023-12-20T05:31:59;99126.53;;;6.39;60.68
46412;BME280;32113;42.012;24.870;2023-12-20T05:34:25;99122.22;;;6.33;60.96
46412;BME280;32113;42.012;24.870;2023-12-20T05:36:50;99120.50;;;6.30;60.65
46412;BME280;32113;42.012;24.870;2023-12-20T05:39:16;99115.31;;;6.18;61.67
46412;BME280;32113;42.012;24.870;2023-12-20T05:41:41;99107.63;;;6.16;62.29
46412;BME280;32113;42.012;24.870;2023-12-20T05:44:06;99105.06;;;6.12;62.18
46412;BME280;32113;42.012;24.870;2023-12-20T05:46:32;99101.72;;;6.16;62.36
46412;BME280;32113;42.012;24.870;2023-12-20T05:48:58;99104.22;;;6.13;62.21
46412;BME280;32113;42.012;24.870;2023-12-20T05:51:23;99100.69;;;6.00;63.66
46412;BME280;32113;42.012;24.870;2023-12-20T05:53:48;99104.06;;;5.97;64.43
46412;BME280;32113;42.012;24.870;2023-12-20T05:56:15;99106.53;;;5.91;64.21
46412;BME280;32113;42.012;24.870;2023-12-20T05:58:40;99104.88;;;5.95;64.36
46412;BME280;32113;42.012;24.870;2023-12-20T06:01:06;99095.53;;;5.95;62.96
46412;BME280;32113;42.012;24.870;2023-12-20T06:03:33;99087.91;;;5.95;62.79
46412;BME280;32113;42.012;24.870;2023-12-20T06:05:59;99097.25;;;5.95;62.38
46412;BME280;32113;42.012;24.870;2023-12-20T06:08:25;99093.88;;;6.00;63.01
46412;BME280;32113;42.012;24.870;2023-12-20T06:10:51;99090.56;;;6.04;63.98
46412;BME280;32113;42.012;24.870;2023-12-20T06:13:16;99099.94;;;6.09;63.49
46412;BME280;32113;42.012;24.870;2023-12-20T06:15:42;99095.72;;;6.11;63.37
46412;BME280;32113;42.012;24.870;2023-12-20T06:18:07;99092.38;;;6.15;63.17
46412;BME280;32113;42.012;24.870;2023-12-20T06:20:33;99097.47;;;6.15;63.48
46412;BME280;32113;42.012;24.870;2023-12-20T06:22:58;99088.91;;;6.10;63.89
46412;BME280;32113;42.012;24.870;2023-12-20T06:25:24;99092.41;;;6.21;63.07
46412;BME280;32113;42.012;24.870;2023-12-20T06:27:49;99095.81;;;6.23;62.42
46412;BME280;32113;42.012;24.870;2023-12-20T06:30:15;99094.13;;;6.25;62.54
46412;BME280;32113;42.012;24.870;2023-12-20T06:32:41;99095.84;;;6.31;61.94
46412;BME280;32113;42.012;24.870;2023-12-20T06:35:08;99095.00;;;6.27;62.66
46412;BME280;32113;42.012;24.870;2023-12-20T06:37:34;99092.47;;;6.29;62.49
46412;BME280;32113;42.012;24.870;2023-12-20T06:40:00;99093.22;;;6.17;63.03
46412;BME280;32113;42.012;24.870;2023-12-20T06:42:26;99093.19;;;6.14;63.34
46412;BME280;32113;42.012;24.870;2023-12-20T06:44:52;99093.22;;;6.17;63.70
46412;BME280;32113;42.012;24.870;2023-12-20T06:47:17;99091.50;;;6.14;63.85
46412;BME280;32113;42.012;24.870;2023-12-20T06:49:42;99087.31;;;6.23;63.90
46412;BME280;32113;42.012;24.870;2023-12-20T06:52:08;99089.91;;;6.27;63.84
46412;BME280;32113;42.012;24.870;2023-12-20T06:54:33;99087.41;;;6.37;63.63
46412;BME280;32113;42.012;24.870;2023-12-20T06:57:00;99095.16;;;6.48;62.58
46412;BME280;32113;42.012;24.870;2023-12-20T06:59:25;99085.72;;;6.40;62.88
46412;BME280;32113;42.012;24.870;2023-12-20T07:01:51;99084.91;;;6.44;62.21
46412;BME280;32113;42.012;24.870;2023-12-20T07:04:16;99084.09;;;6.49;62.86
46412;BME280;32113;42.012;24.870;2023-12-20T07:06:47;99068.88;;;6.60;62.55
46412;BME280;32113;42.012;24.870;2023-12-20T07:09:13;99069.75;;;6.65;62.69
46412;BME280;32113;42.012;24.870;2023-12-20T07:11:39;99071.50;;;6.70;62.34
46412;BME280;32113;42.012;24.870;2023-12-20T07:14:04;99073.22;;;6.78;62.05
46412;BME280;32113;42.012;24.870;2023-12-20T07:16:30;99068.19;;;6.89;61.63
46412;BME280;32113;42.012;24.870;2023-12-20T07:18:55;99058.03;;;6.98;61.58
46412;BME280;32113;42.012;24.870;2023-12-20T07:21:22;99052.97;;;7.09;61.16
46412;BME280;32113;42.012;24.870;2023-12-20T07:23:47;99057.25;;;7.21;60.87
46412;BME280;32113;42.012;24.870;2023-12-20T07:26:13;99051.34;;;7.31;60.75
46412;BME280;32113;42.012;24.870;2023-12-20T07:28:38;99058.13;;;7.20;60.33
46412;BME280;32113;42.012;24.870;2023-12-20T07:31:03;99055.56;;;7.26;60.17
46412;BME280;32113;42.012;24.870;2023-12-20T07:33:29;99059.81;;;7.27;60.90
46412;BME280;32113;42.012;24.870;2023-12-20T07:35:55;99051.38;;;7.41;60.21
46412;BME280;32113;42.012;24.870;2023-12-20T07:38:20;99052.25;;;7.49;60.62
46412;BME280;32113;42.012;24.870;2023-12-20T07:40:45;99046.28;;;7.59;59.71
46412;BME280;32113;42.012;24.870;2023-12-20T07:43:11;99044.59;;;7.66;59.93
46412;BME280;32113;42.012;24.870;2023-12-20T07:45:36;99033.56;;;7.70;59.93
46412;BME280;32113;42.012;24.870;2023-12-20T07:48:03;99041.22;;;7.75;60.16
46412;BME280;32113;42.012;24.870;2023-12-20T07:50:29;99027.59;;;7.76;59.78
46412;BME280;32113;42.012;24.870;2023-12-20T07:52:54;99030.16;;;7.81;60.06
46412;BME280;32113;42.012;24.870;2023-12-20T07:55:20;99031.00;;;7.91;59.77
46412;BME280;32113;42.012;24.870;2023-12-20T07:57:46;99028.47;;;8.00;59.36
46412;BME280;32113;42.012;24.870;2023-12-20T08:00:12;99024.19;;;8.05;59.24
46412;BME280;32113;42.012;24.870;2023-12-20T08:02:37;99025.03;;;8.09;58.97
46412;BME280;32113;42.012;24.870;2023-12-20T08:05:03;99026.72;;;8.19;59.02
46412;BME280;32113;42.012;24.870;2023-12-20T08:07:29;99027.59;;;8.29;58.46
46412;BME280;32113;42.012;24.870;2023-12-20T08:09:54;99025.88;;;8.39;58.85
46412;BME280;32113;42.012;24.870;2023-12-20T08:12:21;99025.84;;;8.53;58.33
46412;BME280;32113;42.012;24.870;2023-12-20T08:14:47;99024.97;;;8.63;58.16
46412;BME280;32113;42.012;24.870;2023-12-20T08:17:12;99025.81;;;8.73;57.82
46412;BME280;32113;42.012;24.870;2023-12-20T08:19:37;99022.34;;;8.88;57.16
46412;BME280;32113;42.012;24.870;2023-12-20T08:22:03;99021.41;;;9.05;57.07
46412;BME280;32113;42.012;24.870;2023-12-20T08:24:29;99027.34;;;9.16;56.99
46412;BME280;32113;42.012;24.870;2023-12-20T08:26:55;99026.41;;;9.31;57.12
46412;BME280;32113;42.012;24.870;2023-12-20T08:29:20;99025.47;;;9.46;56.88
46412;BME280;32113;42.012;24.870;2023-12-20T08:31:46;99013.41;;;9.64;56.74
46412;BME280;32113;42.012;24.870;2023-12-20T08:34:11;99004.72;;;9.79;56.36
46412;BME280;32113;42.012;24.870;2023-12-20T08:36:39;99008.00;;;10.02;55.42
46412;BME280;32113;42.012;24.870;2023-12-20T08:39:04;99001.06;;;10.11;54.00
46412;BME280;32113;42.012;24.870;2023-12-20T08:41:32;98999.25;;;10.24;53.92
46412;BME280;32113;42.012;24.870;2023-12-20T08:43:58;98994.88;;;10.31;53.42
46412;BME280;32113;42.012;24.870;2023-12-20T08:46:23;98993.97;;;10.37;52.90
46412;BME280;32113;42.012;24.870;2023-12-20T08:48:48;98978.50;;;10.43;52.07
46412;BME280;32113;42.012;24.870;2023-12-20T08:51:14;98969.84;;;10.57;51.77
46412;BME280;32113;42.012;24.870;2023-12-20T08:53:39;98963.56;;;10.81;51.05
46412;BME280;32113;42.012;24.870;2023-12-20T08:56:05;98959.00;;;11.03;51.00
46412;BME280;32113;42.012;24.870;2023-12-20T08:58:30;98950.13;;;11.25;50.61
46412;BME280;32113;42.012;24.870;2023-12-20T09:00:56;98944.84;;;11.36;50.32
46412;BME280;32113;42.012;24.870;2023-12-20T09:03:22;98936.25;;;11.37;49.36
46412;BME280;32113;42.012;24.870;2023-12-20T09:05:47;98930.31;;;11.35;49.78
46412;BME280;32113;42.012;24.870;2023-12-20T09:08:13;98926.06;;;11.34;49.14
46412;BME280;32113;42.012;24.870;2023-12-20T09:10:38;98922.56;;;11.38;48.60
46412;BME280;32113;42.012;24.870;2023-12-20T09:13:04;98922.50;;;11.41;49.06
46412;BME280;32113;42.012;24.870;2023-12-20T09:15:29;98911.41;;;11.39;48.70
46412;BME280;32113;42.012;24.870;2023-12-20T09:17:55;98913.09;;;11.41;49.38
46412;BME280;32113;42.012;24.870;2023-12-20T09:20:21;98903.47;;;11.51;48.88
46412;BME280;32113;42.012;24.870;2023-12-20T09:22:48;98898.19;;;11.61;48.67
46412;BME280;32113;42.012;24.870;2023-12-20T09:25:14;98895.47;;;11.70;47.99
46412;BME280;32113;42.012;24.870;2023-12-20T09:27:41;98897.06;;;11.77;47.95
46412;BME280;32113;42.012;24.870;2023-12-20T09:30:06;98884.91;;;11.87;47.61
46412;BME280;32113;42.012;24.870;2023-12-20T09:32:32;98881.16;;;12.05;47.51
46412;BME280;32113;42.012;24.870;2023-12-20T09:34:58;98881.00;;;12.13;47.90
46412;BME280;32113;42.012;24.870;2023-12-20T09:37:26;98873.06;;;12.26;46.88
46412;BME280;32113;42.012;24.870;2023-12-20T09:39:51;98870.91;;;12.46;45.98
46412;BME280;32113;42.012;24.870;2023-12-20T09:42:29;98862.91;;;12.60;45.74
46412;BME280;32113;42.012;24.870;2023-12-20T09:44:59;98853.91;;;12.80;45.60
46412;BME280;32113;42.012;24.870;2023-12-20T09:47:26;98853.28;;;13.07;44.97
46412;BME280;32113;42.012;24.870;2023-12-20T09:49:52;98841.41;;;13.36;44.14
46412;BME280;32113;42.012;24.870;2023-12-20T09:52:18;98829.91;;;13.84;43.34
46412;BME280;32113;42.012;24.870;2023-12-20T09:54:48;98827.75;;;14.30;42.20
46412;BME280;32113;42.012;24.870;2023-12-20T09:57:14;98824.88;;;14.70;41.28
46412;BME280;32113;42.012;24.870;2023-12-20T09:59:40;98813.50;;;15.04;40.22
46412;BME280;32113;42.012;24.870;2023-12-20T10:02:10;98813.16;;;15.41;39.00
46412;BME280;32113;42.012;24.870;2023-12-20T10:04:38;98812.09;;;15.72;38.96
46412;BME280;32113;42.012;24.870;2023-12-20T10:07:07;98807.47;;;16.06;37.91
46412;BME280;32113;42.012;24.870;2023-12-20T10:09:33;98805.63;;;16.32;37.79
46412;BME280;32113;42.012;24.870;2023-12-20T10:11:59;98795.44;;;16.51;37.18
46412;BME280;32113;42.012;24.870;2023-12-20T10:14:25;98800.06;;;16.65;37.50
46412;BME280;32113;42.012;24.870;2023-12-20T10:16:50;98795.38;;;16.75;37.39
46412;BME280;32113;42.012;24.870;2023-12-20T10:19:19;98799.25;;;16.85;37.16
46412;BME280;32113;42.012;24.870;2023-12-20T10:21:44;98788.66;;;16.69;36.71
46412;BME280;32113;42.012;24.870;2023-12-20T10:24:16;98777.78;;;16.61;36.87
46412;BME280;32113;42.012;24.870;2023-12-20T10:26:42;98779.88;;;16.73;37.07
46412;BME280;32113;42.012;24.870;2023-12-20T10:29:07;98769.41;;;16.76;36.88
46412;BME280;32113;42.012;24.870;2023-12-20T10:31:33;98764.09;;;16.79;36.45
46412;BME280;32113;42.012;24.870;2023-12-20T10:34:01;98757.28;;;16.77;36.38
46412;BME280;32113;42.012;24.870;2023-12-20T10:36:27;98751.31;;;16.75;36.25
46412;BME280;32113;42.012;24.870;2023-12-20T10:38:54;98752.28;;;16.72;36.20
46412;BME280;32113;42.012;24.870;2023-12-20T10:43:51;98727.69;;;16.83;36.31
46412;BME280;32113;42.012;24.870;2023-12-20T10:46:18;98731.56;;;16.93;35.91
46412;BME280;32113;42.012;24.870;2023-12-20T10:48:45;98721.94;;;16.97;35.63
46412;BME280;32113;42.012;24.870;2023-12-20T10:51:14;98717.59;;;16.97;35.46
46412;BME280;32113;42.012;24.870;2023-12-20T10:53:42;98716.50;;;17.03;36.02
46412;BME280;32113;42.012;24.870;2023-12-20T10:56:12;98714.59;;;17.08;36.17
46412;BME280;32113;42.012;24.870;2023-12-20T10:58:41;98709.97;;;17.15;36.66
46412;BME280;32113;42.012;24.870;2023-12-20T11:01:08;98705.44;;;17.20;35.90
46412;BME280;32113;42.012;24.870;2023-12-20T11:03:35;98699.50;;;17.18;36.13
46412;BME280;32113;42.012;24.870;2023-12-20T11:08:52;98686.38;;;17.21;36.13
46412;BME280;32113;42.012;24.870;2023-12-20T11:11:35;98691.06;;;17.13;36.26
46412;BME280;32113;42.012;24.870;2023-12-20T11:14:07;98685.72;;;16.95;36.66
46412;BME280;32113;42.012;24.870;2023-12-20T11:16:40;98680.28;;;16.80;36.70
46412;BME280;32113;42.012;24.870;2023-12-20T11:19:06;98680.53;;;16.74;36.63
46412;BME280;32113;42.012;24.870;2023-12-20T11:21:31;98674.31;;;16.58;36.75
46412;BME280;32113;42.012;24.870;2023-12-20T11:23:57;98676.19;;;16.54;37.52
46412;BME280;32113;42.012;24.870;2023-12-20T11:26:27;98668.50;;;16.52;37.01
46412;BME280;32113;42.012;24.870;2023-12-20T11:28:53;98655.78;;;16.46;37.37
46412;BME280;32113;42.012;24.870;2023-12-20T11:31:19;98658.50;;;16.43;37.69
46412;BME280;32113;42.012;24.870;2023-12-20T11:33:45;98652.69;;;16.38;37.61
46412;BME280;32113;42.012;24.870;2023-12-20T11:36:15;98646.19;;;16.27;38.08
46412;BME280;32113;42.012;24.870;2023-12-20T11:38:56;98647.28;;;16.22;38.76
46412;BME280;32113;42.012;24.870;2023-12-20T11:41:26;98638.91;;;16.15;39.03
46412;BME280;32113;42.012;24.870;2023-12-20T11:43:55;98627.41;;;16.00;38.72
46412;BME280;32113;42.012;24.870;2023-12-20T11:46:21;98624.16;;;15.95;38.71
46412;BME280;32113;42.012;24.870;2023-12-20T11:48:47;98614.97;;;15.87;38.92
46412;BME280;32113;42.012;24.870;2023-12-20T11:51:13;98610.41;;;15.70;38.85
46412;BME280;32113;42.012;24.870;2023-12-20T11:53:40;98608.97;;;15.63;39.43
46412;BME280;32113;42.012;24.870;2023-12-20T11:56:08;98611.47;;;15.42;39.52
46412;BME280;32113;42.012;24.870;2023-12-20T11:58:34;98599.78;;;15.32;39.98
46412;BME280;32113;42.012;24.870;2023-12-20T12:01:00;98596.75;;;15.20;40.61
46412;BME280;32113;42.012;24.870;2023-12-20T12:03:27;98604.38;;;15.00;40.46
46412;BME280;32113;42.012;24.870;2023-12-20T12:05:53;98605.03;;;14.81;41.78
46412;BME280;32113;42.012;24.870;2023-12-20T12:08:18;98598.38;;;14.74;42.12
46412;BME280;32113;42.012;24.870;2023-12-20T12:10:44;98593.56;;;14.63;42.37
46412;BME280;32113;42.012;24.870;2023-12-20T12:13:10;98587.00;;;14.54;42.57
46412;BME280;32113;42.012;24.870;2023-12-20T12:15:36;98583.72;;;14.49;42.95
46412;BME280;32113;42.012;24.870;2023-12-20T12:18:03;98584.59;;;14.48;42.62
46412;BME280;32113;42.012;24.870;2023-12-20T12:20:28;98575.41;;;14.40;43.02
46412;BME280;32113;42.012;24.870;2023-12-20T12:23:02;98582.34;;;14.38;43.54
46412;BME280;32113;42.012;24.870;2023-12-20T12:25:29;98571.38;;;14.31;43.33
46412;BME280;32113;42.012;24.870;2023-12-20T12:27:56;98579.19;;;14.30;44.27
46412;BME280;32113;42.012;24.870;2023-12-20T12:30:22;98573.13;;;14.31;43.88
46412;BME280;32113;42.012;24.870;2023-12-20T12:32:47;98576.41;;;14.36;43.76
46412;BME280;32113;42.012;24.870;2023-12-20T12:35:14;98571.22;;;14.36;43.24
46412;BME280;32113;42.012;24.870;2023-12-20T12:37:40;98563.63;;;14.31;43.76
46412;BME280;32113;42.012;24.870;2023-12-20T12:40:15;98561.34;;;14.22;44.01
46412;BME280;32113;42.012;24.870;2023-12-20T12:42:41;98557.28;;;14.16;44.37
46412;BME280;32113;42.012;24.870;2023-12-20T12:45:07;98554.72;;;14.15;44.40
46412;BME280;32113;42.012;24.870;2023-12-20T12:47:34;98563.28;;;14.15;44.04
46412;BME280;32113;42.012;24.870;2023-12-20T12:49:59;98558.34;;;14.09;44.40
46412;BME280;32113;42.012;24.870;2023-12-20T12:52:25;98562.81;;;14.04;44.70
46412;BME280;32113;42.012;24.870;2023-12-20T12:54:52;98552.50;;;14.04;44.70
46412;BME280;32113;42.012;24.870;2023-12-20T12:57:18;98562.03;;;14.02;44.79